createdAt,value
2023-04-10T00:00:13.341Z,43.47
2023-04-10T00:05:15.315Z,42.85
2023-04-10T00:10:17.227Z,41.09
2023-04-10T00:15:19.033Z,39.78
2023-04-10T00:20:23.974Z,39.24
2023-04-10T00:25:26.619Z,39.54
2023-04-10T00:30:28.524Z,40.57
2023-04-10T00:35:30.702Z,39.28
2023-04-10T00:40:32.633Z,38.43
2023-04-10T00:45:34.575Z,38.83
2023-04-10T00:50:36.644Z,37.68
2023-04-10T00:55:38.802Z,37.95
2023-04-10T01:00:41.596Z,36.80
2023-04-10T01:06:12.178Z,36.94
2023-04-10T01:11:24.845Z,36.67
2023-04-10T01:16:31.904Z,37.10
2023-04-10T01:21:37.567Z,36.79
2023-04-10T01:26:52.058Z,36.54
2023-04-10T01:32:01.969Z,39.90
2023-04-10T01:37:16.811Z,39.84
2023-04-10T01:42:21.126Z,39.72
2023-04-10T01:47:25.523Z,39.80
2023-04-10T01:52:29.003Z,38.17
2023-04-10T01:57:41.080Z,37.68
2023-04-10T02:02:44.420Z,37.38
2023-04-10T02:08:14.506Z,37.98
2023-04-10T02:13:21.596Z,36.78
2023-04-10T02:18:26.521Z,40.31
2023-04-10T02:23:28.529Z,39.15
2023-04-10T02:28:30.335Z,38.16
2023-04-10T02:33:32.878Z,38.17
2023-04-10T02:38:34.808Z,39.17
2023-04-10T02:43:36.909Z,38.50
2023-04-10T02:48:39.262Z,38.44
2023-04-10T02:53:41.131Z,40.54
2023-04-10T02:58:46.196Z,38.84
2023-04-10T03:03:48.982Z,38.90
2023-04-10T03:08:59.497Z,38.56
2023-04-10T03:14:02.453Z,39.51
2023-04-10T03:19:04.595Z,38.27
2023-04-10T03:24:07.165Z,38.15
2023-04-10T03:29:09.227Z,38.49
2023-04-10T03:34:11.081Z,37.97
2023-04-10T03:39:12.914Z,38.25
2023-04-10T03:44:14.723Z,37.96
2023-04-10T03:49:16.734Z,40.18
2023-04-10T03:54:18.890Z,39.32
2023-04-10T03:59:24.228Z,38.45
2023-04-10T04:04:28.204Z,39.68
2023-04-10T04:09:56.552Z,40.69
2023-04-10T04:15:23.828Z,39.41
2023-04-10T04:20:34.021Z,40.79
2023-04-10T04:25:56.174Z,39.79
2023-04-10T04:31:32.625Z,39.54
2023-04-10T04:37:02.992Z,40.40
2023-04-10T04:42:13.830Z,39.92
2023-04-10T04:47:35.297Z,40.44
2023-04-10T04:52:57.400Z,39.30
2023-04-10T04:58:10.770Z,39.85
2023-04-10T05:03:45.468Z,39.11
2023-04-10T05:09:16.871Z,39.23
2023-04-10T05:14:28.883Z,39.14
2023-04-10T05:20:06.671Z,40.11
2023-04-10T05:25:43.815Z,38.98
2023-04-10T05:30:55.437Z,38.76
2023-04-10T05:36:18.266Z,38.92
2023-04-10T05:41:32.343Z,38.00
2023-04-10T05:46:54.499Z,37.92
2023-04-10T05:52:14.770Z,37.58
2023-04-10T05:57:35.151Z,37.73
2023-04-10T06:02:55.865Z,37.97
2023-04-10T06:08:01.530Z,38.32
2023-04-10T06:13:04.018Z,39.46
2023-04-10T06:18:06.431Z,38.99
2023-04-10T06:23:08.365Z,39.04
2023-04-10T06:28:11.616Z,38.54
2023-04-10T06:33:14.163Z,37.33
2023-04-10T06:38:18.917Z,37.21
2023-04-10T06:43:21.196Z,36.28
2023-04-10T06:48:23.966Z,35.33
2023-04-10T06:53:25.934Z,36.66
2023-04-10T06:58:27.899Z,36.90
2023-04-10T07:03:30.633Z,37.03
2023-04-10T07:08:32.575Z,37.01
2023-04-10T07:13:35.679Z,36.14
2023-04-10T07:18:39.111Z,37.01
2023-04-10T07:23:41.002Z,36.05
2023-04-10T07:28:42.960Z,37.77
2023-04-10T07:33:48.095Z,36.65
2023-04-10T07:38:49.967Z,38.89
2023-04-10T07:43:51.754Z,36.75
2023-04-10T07:48:55.699Z,38.84
2023-04-10T07:53:57.824Z,36.76
2023-04-10T07:59:01.173Z,36.40
2023-04-10T08:04:05.578Z,35.50
2023-04-10T08:09:08.001Z,37.72
2023-04-10T08:14:10.976Z,49.19
2023-04-10T08:19:12.814Z,52.43
2023-04-10T08:24:14.715Z,48.23
2023-04-10T08:29:16.583Z,48.82
2023-04-10T08:34:18.377Z,46.47
2023-04-10T08:39:20.284Z,47.30
2023-04-10T08:44:22.189Z,52.47
2023-04-10T08:49:50.018Z,50.80
2023-04-10T08:54:55.304Z,55.15
2023-04-10T08:59:59.499Z,54.25
2023-04-10T09:05:03.983Z,54.45
2023-04-10T09:10:07.635Z,48.51
2023-04-10T09:15:09.715Z,51.50
2023-04-10T09:20:22.348Z,52.82
2023-04-10T09:25:36.347Z,53.51
2023-04-10T09:30:40.551Z,50.25
2023-04-10T09:35:42.616Z,50.98
2023-04-10T09:40:45.693Z,49.50
2023-04-10T09:45:56.544Z,47.49
2023-04-10T09:50:58.615Z,50.28
2023-04-10T09:56:00.954Z,40.55
2023-04-10T10:01:02.929Z,47.22
2023-04-10T10:06:05.414Z,48.77
2023-04-10T10:11:11.358Z,46.57
2023-04-10T10:16:18.634Z,46.76
2023-04-10T10:21:21.316Z,44.24
2023-04-10T10:26:24.463Z,43.08
2023-04-10T10:31:32.751Z,40.07
2023-04-10T10:36:41.484Z,37.13
2023-04-10T10:42:25.679Z,39.62
2023-04-10T10:47:30.341Z,34.35
2023-04-10T10:52:57.537Z,37.96
2023-04-10T10:58:02.139Z,39.07
2023-04-10T11:03:12.875Z,37.56
2023-04-10T11:08:14.868Z,33.24
2023-04-10T11:13:18.338Z,34.73
2023-04-10T11:18:21.040Z,39.82
2023-04-10T11:23:22.969Z,38.28
2023-04-10T11:28:35.774Z,38.24
2023-04-10T11:33:38.346Z,35.99
2023-04-10T11:38:40.291Z,40.57
2023-04-10T11:43:42.682Z,37.06
2023-04-10T11:48:44.665Z,40.67
2023-04-10T11:53:46.644Z,40.25
2023-04-10T11:58:52.963Z,38.57
2023-04-10T12:03:55.204Z,35.38
2023-04-10T12:08:57.455Z,38.37
2023-04-10T12:13:59.965Z,36.93
2023-04-10T12:19:02.585Z,34.44
2023-04-10T12:24:05.421Z,37.93
2023-04-10T12:29:08.007Z,37.28
2023-04-10T12:34:11.405Z,35.90
2023-04-10T12:39:24.702Z,35.87
2023-04-10T12:44:27.115Z,38.33
2023-04-10T12:49:28.956Z,37.01
2023-04-10T12:54:33.277Z,32.91
2023-04-10T12:59:35.175Z,33.97
2023-04-10T13:04:37.165Z,33.16
2023-04-10T13:09:39.191Z,37.15
2023-04-10T13:14:41.460Z,34.55
2023-04-10T13:19:43.255Z,32.65
2023-04-10T13:24:45.677Z,32.07
2023-04-10T13:29:47.470Z,31.91
2023-04-10T13:34:49.337Z,33.90
2023-04-10T13:39:51.219Z,31.60
2023-04-10T13:44:53.043Z,30.29
2023-04-10T13:49:54.861Z,29.96
2023-04-10T13:54:56.636Z,29.60
2023-04-10T13:59:58.478Z,26.61
2023-04-10T14:05:00.273Z,27.27
2023-04-10T14:10:03.036Z,25.97
2023-04-10T14:15:05.998Z,26.92
2023-04-10T14:20:11.348Z,27.17
2023-04-10T14:25:15.969Z,27.24
2023-04-10T14:30:18.090Z,24.52
2023-04-10T14:35:19.970Z,24.22
2023-04-10T14:40:21.956Z,23.40
2023-04-10T14:45:24.047Z,23.84
2023-04-10T14:50:25.962Z,23.53
2023-04-10T14:55:30.730Z,24.41
2023-04-10T15:00:33.195Z,22.97
2023-04-10T15:05:35.194Z,22.04
2023-04-10T15:10:37.000Z,23.17
2023-04-10T15:15:38.923Z,21.70
2023-04-10T15:20:40.801Z,21.32
2023-04-10T15:25:42.586Z,21.81
2023-04-10T15:30:45.118Z,21.98
2023-04-10T15:35:49.748Z,22.72
2023-04-10T15:40:52.197Z,21.59
2023-04-10T15:45:54.101Z,19.47
2023-04-10T15:50:56.012Z,19.28
2023-04-10T15:55:57.917Z,18.29
2023-04-10T16:01:00.701Z,19.92
2023-04-10T16:06:02.588Z,19.31
2023-04-10T16:11:04.578Z,21.25
2023-04-10T16:16:08.679Z,21.01
2023-04-10T16:21:16.790Z,20.94
2023-04-10T16:26:19.496Z,20.23
2023-04-10T16:31:21.415Z,19.76
2023-04-10T16:36:23.668Z,18.48
2023-04-10T16:41:25.490Z,19.40
2023-04-10T16:46:27.395Z,21.09
2023-04-10T16:51:29.249Z,21.25
2023-04-10T16:56:32.660Z,20.43
2023-04-10T17:01:39.592Z,20.43
2023-04-10T17:06:41.497Z,20.96
2023-04-10T17:11:43.607Z,20.49
2023-04-10T17:16:46.021Z,22.15
2023-04-10T17:21:48.009Z,21.97
2023-04-10T17:26:49.860Z,20.55
2023-04-10T17:31:52.197Z,21.71
2023-04-10T17:36:54.164Z,20.98
2023-04-10T17:41:56.923Z,21.36
2023-04-10T17:46:58.863Z,23.12
2023-04-10T17:52:00.920Z,21.98
2023-04-10T17:57:02.729Z,21.50
2023-04-10T18:02:04.646Z,21.25
2023-04-10T18:07:06.625Z,20.42
2023-04-10T18:12:08.622Z,21.43
2023-04-10T18:17:10.508Z,21.03
2023-04-10T18:22:12.273Z,24.43
2023-04-10T18:27:14.803Z,24.79
2023-04-10T18:32:16.669Z,23.31
2023-04-10T18:37:18.545Z,24.15
2023-04-10T18:42:20.480Z,22.22
2023-04-10T18:47:22.275Z,22.55
2023-04-10T18:52:24.141Z,22.46
2023-04-10T18:57:26.006Z,21.86
2023-04-10T19:02:28.052Z,23.26
2023-04-10T19:07:32.303Z,23.22
2023-04-10T19:12:35.108Z,24.35
2023-04-10T19:17:37.096Z,22.26
2023-04-10T19:22:38.969Z,24.04
2023-04-10T19:27:40.761Z,24.37
2023-04-10T19:32:42.681Z,22.74
2023-04-10T19:37:44.490Z,22.82
2023-04-10T19:42:46.297Z,23.73
2023-04-10T19:47:50.829Z,22.87
2023-04-10T19:52:52.745Z,23.66
2023-04-10T19:57:54.940Z,22.87
2023-04-10T20:02:57.006Z,22.45
2023-04-10T20:07:58.996Z,21.60
2023-04-10T20:13:00.799Z,22.10
2023-04-10T20:18:02.822Z,24.06
2023-04-10T20:23:04.621Z,24.07
2023-04-10T20:28:06.550Z,24.52
2023-04-10T20:33:08.306Z,26.88
2023-04-10T20:38:10.192Z,26.42
2023-04-10T20:43:12.349Z,25.87
2023-04-10T20:48:14.179Z,25.96
2023-04-10T20:53:16.110Z,26.64
2023-04-10T20:58:17.896Z,26.60
2023-04-10T21:03:20.753Z,25.29
2023-04-10T21:08:22.811Z,24.38
2023-04-10T21:13:25.244Z,22.90
2023-04-10T21:18:27.268Z,23.65
2023-04-10T21:23:29.087Z,25.09
2023-04-10T21:28:30.934Z,24.16
2023-04-10T21:33:33.050Z,24.87
2023-04-10T21:38:35.395Z,24.99
2023-04-10T21:43:38.520Z,25.08
2023-04-10T21:48:41.587Z,24.72
2023-04-10T21:53:43.435Z,25.91
2023-04-10T21:58:45.307Z,27.05
2023-04-10T22:03:47.555Z,27.30
2023-04-10T22:08:49.394Z,25.49
2023-04-10T22:13:52.186Z,25.61
2023-04-10T22:18:54.827Z,26.79
2023-04-10T22:23:56.716Z,26.65
2023-04-10T22:28:59.120Z,25.12
2023-04-10T22:34:00.882Z,25.85
2023-04-10T22:39:03.635Z,25.31
2023-04-10T22:44:07.407Z,26.02
2023-04-10T22:49:09.230Z,26.31
2023-04-10T22:54:11.960Z,26.96
2023-04-10T22:59:13.677Z,26.24
2023-04-10T23:04:15.755Z,26.10
2023-04-10T23:09:17.664Z,25.35
2023-04-10T23:14:20.015Z,25.83
2023-04-10T23:19:21.889Z,25.09
2023-04-10T23:24:23.663Z,26.29
2023-04-10T23:29:25.506Z,24.75
2023-04-10T23:34:27.226Z,25.22
2023-04-10T23:39:29.044Z,25.26
2023-04-10T23:44:30.916Z,26.71
2023-04-10T23:49:34.879Z,28.29
2023-04-10T23:54:36.749Z,26.53
2023-04-10T23:59:38.625Z,26.76
